createdAt,value
2018-01-10T00:01:48.627Z,1.08
2018-01-10T00:04:19.373Z,1.14
2018-01-10T00:06:50.184Z,1.15
2018-01-10T00:09:21.297Z,1.15
2018-01-10T00:11:52.125Z,1.19
2018-01-10T00:14:22.852Z,1.22
2018-01-10T00:16:53.588Z,1.23
2018-01-10T00:19:24.326Z,1.25
2018-01-10T00:21:55.098Z,1.18
2018-01-10T00:24:25.944Z,1.29
2018-01-10T00:26:56.692Z,1.23
2018-01-10T00:29:27.446Z,1.24
2018-01-10T00:31:58.257Z,1.30
2018-01-10T00:34:29.017Z,1.23
2018-01-10T00:36:59.773Z,1.18
2018-01-10T00:39:30.505Z,1.16
2018-01-10T00:42:01.265Z,1.12
2018-01-10T00:44:32.021Z,1.09
2018-01-10T00:47:02.809Z,0.95
2018-01-10T00:49:33.566Z,0.90
2018-01-10T00:52:04.336Z,0.95
2018-01-10T00:54:35.085Z,0.90
2018-01-10T00:57:05.881Z,0.87
2018-01-10T00:59:36.629Z,0.91
2018-01-10T01:02:07.368Z,1.12
2018-01-10T01:04:38.247Z,1.13
2018-01-10T01:07:09.004Z,0.99
2018-01-10T01:09:39.745Z,0.93
2018-01-10T01:12:10.556Z,0.82
2018-01-10T01:14:41.316Z,0.87
2018-01-10T01:17:12.080Z,0.94
2018-01-10T01:19:42.821Z,0.94
2018-01-10T01:22:13.649Z,0.89
2018-01-10T01:24:44.422Z,0.94
2018-01-10T01:27:15.208Z,0.88
2018-01-10T01:29:46.081Z,0.89
2018-01-10T01:32:16.881Z,1.09
2018-01-10T01:34:47.656Z,1.19
2018-01-10T01:37:18.485Z,1.13
2018-01-10T01:39:49.277Z,1.15
2018-01-10T01:42:20.050Z,1.16
2018-01-10T01:44:50.848Z,1.22
2018-01-10T01:47:21.648Z,1.20
2018-01-10T01:49:52.402Z,1.20
2018-01-10T01:52:23.206Z,1.29
2018-01-10T01:54:53.956Z,1.37
2018-01-10T01:57:24.744Z,1.35
2018-01-10T01:59:55.528Z,1.38
2018-01-10T02:02:26.421Z,1.31
2018-01-10T02:04:57.177Z,1.29
2018-01-10T02:07:28.753Z,1.26
2018-01-10T02:09:59.510Z,1.26
2018-01-10T02:12:30.289Z,1.27
2018-01-10T02:15:01.044Z,1.28
2018-01-10T02:17:31.857Z,1.27
2018-01-10T02:20:02.626Z,1.29
2018-01-10T02:22:33.397Z,1.29
2018-01-10T02:25:04.176Z,1.28
2018-01-10T02:27:34.956Z,1.28
2018-01-10T02:30:05.724Z,1.35
2018-01-10T02:32:36.500Z,1.39
2018-01-10T02:35:07.248Z,1.41
2018-01-10T02:37:38.031Z,1.36
2018-01-10T02:40:09.869Z,1.41
2018-01-10T02:42:40.621Z,1.48
2018-01-10T02:45:11.401Z,1.48
2018-01-10T02:47:42.165Z,1.49
2018-01-10T02:50:12.925Z,1.57
2018-01-10T02:52:43.694Z,1.59
2018-01-10T02:55:14.449Z,1.65
2018-01-10T02:57:45.208Z,1.71
2018-01-10T03:00:22.956Z,1.69
2018-01-10T03:02:53.724Z,1.79
2018-01-10T03:05:24.472Z,1.86
2018-01-10T03:07:55.268Z,1.80
2018-01-10T03:10:26.048Z,1.79
2018-01-10T03:12:56.920Z,1.75
2018-01-10T03:15:27.681Z,1.74
2018-01-10T03:17:58.453Z,1.68
2018-01-10T03:20:29.234Z,1.60
2018-01-10T03:23:00.046Z,1.64
2018-01-10T03:25:30.841Z,1.63
2018-01-10T03:28:01.628Z,1.63
2018-01-10T03:30:32.389Z,1.69
2018-01-10T03:33:03.180Z,1.64
2018-01-10T03:35:34.009Z,1.69
2018-01-10T03:38:04.799Z,1.69
2018-01-10T03:40:35.549Z,1.67
2018-01-10T03:43:06.346Z,1.67
2018-01-10T03:45:37.129Z,1.76
2018-01-10T03:48:07.928Z,1.69
2018-01-10T03:50:38.686Z,1.73
2018-01-10T03:53:09.473Z,1.63
2018-01-10T03:55:40.237Z,1.71
2018-01-10T03:58:11.020Z,1.67
2018-01-10T04:00:41.783Z,1.69
2018-01-10T04:03:12.575Z,1.72
2018-01-10T04:05:43.341Z,1.69
2018-01-10T04:08:14.129Z,1.73
2018-01-10T04:10:44.983Z,1.77
2018-01-10T04:13:15.785Z,1.79
2018-01-10T04:15:46.548Z,1.88
2018-01-10T04:18:17.326Z,1.84
2018-01-10T04:20:48.092Z,1.85
2018-01-10T04:23:18.877Z,1.83
2018-01-10T04:25:49.652Z,1.83
2018-01-10T04:28:20.437Z,1.83
2018-01-10T04:30:51.213Z,1.74
2018-01-10T04:33:22.009Z,1.77
2018-01-10T04:35:52.776Z,1.80
2018-01-10T04:38:23.566Z,1.85
2018-01-10T04:40:54.336Z,1.83
2018-01-10T04:43:25.097Z,1.83
2018-01-10T04:45:55.872Z,1.79
2018-01-10T04:48:26.636Z,1.82
2018-01-10T04:50:57.392Z,1.92
2018-01-10T04:53:28.180Z,1.86
2018-01-10T04:55:58.968Z,1.79
2018-01-10T04:58:29.780Z,1.86
2018-01-10T05:01:00.536Z,1.87
2018-01-10T05:03:31.340Z,1.87
2018-01-10T05:06:02.097Z,1.92
2018-01-10T05:08:32.862Z,1.91
2018-01-10T05:11:03.620Z,1.95
2018-01-10T05:13:34.396Z,1.88
2018-01-10T05:16:05.161Z,1.88
2018-01-10T05:18:35.923Z,1.80
2018-01-10T05:21:06.677Z,1.82
2018-01-10T05:23:37.450Z,1.80
2018-01-10T05:26:08.197Z,1.83
2018-01-10T05:28:38.966Z,1.78
2018-01-10T05:31:09.712Z,1.80
2018-01-10T05:33:40.509Z,1.79
2018-01-10T05:36:11.265Z,1.77
2018-01-10T05:38:42.044Z,1.81
2018-01-10T05:41:12.808Z,1.75
2018-01-10T05:43:43.686Z,1.75
2018-01-10T05:46:14.449Z,1.77
2018-01-10T05:48:45.217Z,1.78
2018-01-10T05:51:15.972Z,1.90
2018-01-10T05:53:46.745Z,1.92
2018-01-10T05:56:17.493Z,1.92
2018-01-10T05:58:48.254Z,1.96
2018-01-10T06:01:19.028Z,1.97
2018-01-10T06:03:49.779Z,1.96
2018-01-10T06:06:20.532Z,1.95
2018-01-10T06:08:51.300Z,1.99
2018-01-10T06:11:22.074Z,2.04
2018-01-10T06:13:52.811Z,1.97
2018-01-10T06:16:23.579Z,1.92
2018-01-10T06:18:54.316Z,1.89
2018-01-10T06:21:25.076Z,1.88
2018-01-10T06:23:55.833Z,1.84
2018-01-10T06:26:26.676Z,1.82
2018-01-10T06:28:57.421Z,1.93
2018-01-10T06:31:28.189Z,1.94
2018-01-10T06:33:58.963Z,1.92
2018-01-10T06:36:29.720Z,1.91
2018-01-10T06:39:00.462Z,1.89
2018-01-10T06:41:31.232Z,1.97
2018-01-10T06:44:01.980Z,1.93
2018-01-10T06:46:32.781Z,1.99
2018-01-10T06:49:03.565Z,2.01
2018-01-10T06:51:34.322Z,2.08
2018-01-10T06:54:05.150Z,2.10
2018-01-10T06:56:35.967Z,2.07
2018-01-10T06:59:06.732Z,2.16
2018-01-10T07:01:37.508Z,2.14
2018-01-10T07:04:08.277Z,2.22
2018-01-10T07:06:39.046Z,2.31
2018-01-10T07:09:09.853Z,2.27
2018-01-10T07:11:40.649Z,2.22
2018-01-10T07:14:11.395Z,2.21
2018-01-10T07:16:42.167Z,2.23
2018-01-10T07:19:12.985Z,2.22
2018-01-10T07:21:44.869Z,2.09
2018-01-10T07:24:15.626Z,2.16
2018-01-10T07:26:46.449Z,2.14
2018-01-10T07:29:17.204Z,2.15
2018-01-10T07:31:47.988Z,2.17
2018-01-10T07:34:18.749Z,2.23
2018-01-10T07:36:49.521Z,2.20
2018-01-10T07:39:20.292Z,2.28
2018-01-10T07:41:51.049Z,2.22
2018-01-10T07:44:21.799Z,2.24
2018-01-10T07:46:52.600Z,2.16
2018-01-10T07:49:23.348Z,2.22
2018-01-10T07:51:54.113Z,2.29
2018-01-10T07:54:24.893Z,2.28
2018-01-10T07:56:55.744Z,2.28
2018-01-10T07:59:26.512Z,2.23
2018-01-10T08:01:57.260Z,2.28
2018-01-10T08:04:28.016Z,2.36
2018-01-10T08:06:58.779Z,2.38
2018-01-10T08:09:29.612Z,2.39
2018-01-10T08:12:00.486Z,2.46
2018-01-10T08:14:31.317Z,2.57
2018-01-10T08:17:02.095Z,2.80
2018-01-10T08:19:32.867Z,2.77
2018-01-10T08:22:03.634Z,2.76
2018-01-10T08:24:34.491Z,2.80
2018-01-10T08:27:05.253Z,2.83
2018-01-10T08:29:36.050Z,2.92
2018-01-10T08:32:06.844Z,3.01
2018-01-10T08:34:37.677Z,3.13
2018-01-10T08:37:08.518Z,3.22
2018-01-10T08:39:39.354Z,3.18
2018-01-10T08:42:10.186Z,3.14
2018-01-10T08:44:41.041Z,3.03
2018-01-10T08:47:11.820Z,2.92
2018-01-10T08:49:42.581Z,2.91
2018-01-10T08:52:13.336Z,2.93
2018-01-10T08:57:21.567Z,3.10
2018-01-10T08:59:52.413Z,3.29
2018-01-10T09:02:23.206Z,3.26
2018-01-10T09:04:53.976Z,3.27
2018-01-10T09:07:24.728Z,3.53
2018-01-10T09:09:55.560Z,3.41
2018-01-10T09:12:26.368Z,3.57
2018-01-10T09:14:57.133Z,3.62
2018-01-10T09:17:29.988Z,3.73
2018-01-10T09:20:00.843Z,3.87
2018-01-10T09:22:31.648Z,4.07
2018-01-10T09:25:02.517Z,3.96
2018-01-10T09:27:33.353Z,3.90
2018-01-10T09:30:04.173Z,3.92
2018-01-10T09:32:35.108Z,4.05
2018-01-10T09:35:06.126Z,4.06
2018-01-10T09:37:36.976Z,4.00
2018-01-10T09:40:07.898Z,4.08
2018-01-10T09:42:38.886Z,4.21
2018-01-10T09:45:11.353Z,4.03
2018-01-10T09:47:42.205Z,4.20
2018-01-10T09:50:13.006Z,4.35
2018-01-10T09:52:43.768Z,4.47
2018-01-10T09:55:14.665Z,4.41
2018-01-10T09:57:45.413Z,4.53
2018-01-10T10:00:16.197Z,4.44
2018-01-10T10:02:46.970Z,4.39
2018-01-10T10:05:17.741Z,4.55
2018-01-10T10:07:48.521Z,5.00
2018-01-10T10:10:19.282Z,5.32
2018-01-10T10:12:50.055Z,5.51
2018-01-10T10:15:21.875Z,5.51
2018-01-10T10:17:59.585Z,5.40
2018-01-10T10:20:30.372Z,5.28
2018-01-10T10:23:01.134Z,5.50
2018-01-10T10:25:31.894Z,5.31
2018-01-10T10:28:02.646Z,5.28
2018-01-10T10:30:33.392Z,5.28
2018-01-10T10:33:04.170Z,5.27
2018-01-10T10:35:34.943Z,5.40
2018-01-10T10:38:05.840Z,5.33
2018-01-10T10:40:36.618Z,5.27
2018-01-10T10:43:07.366Z,5.30
2018-01-10T10:45:38.148Z,5.41
2018-01-10T10:48:08.907Z,5.32
2018-01-10T10:50:39.693Z,5.39
2018-01-10T10:53:10.465Z,5.18
2018-01-10T10:55:41.256Z,5.21
2018-01-10T10:58:12.050Z,5.28
2018-01-10T11:00:42.826Z,5.36
2018-01-10T11:03:13.621Z,5.65
2018-01-10T11:05:44.413Z,5.55
2018-01-10T11:08:15.177Z,5.67
2018-01-10T11:10:45.965Z,5.62
2018-01-10T11:13:16.719Z,5.76
2018-01-10T11:15:47.495Z,5.72
2018-01-10T11:18:18.252Z,5.73
2018-01-10T11:20:49.033Z,5.58
2018-01-10T11:23:19.813Z,5.56
2018-01-10T11:25:50.600Z,5.47
2018-01-10T11:28:27.292Z,5.48
2018-01-10T11:30:58.069Z,5.75
2018-01-10T11:33:28.960Z,6.09
2018-01-10T11:35:59.955Z,6.14
2018-01-10T11:38:30.878Z,6.02
2018-01-10T11:41:01.732Z,6.00
2018-01-10T11:43:32.729Z,6.03
2018-01-10T11:46:03.669Z,5.87
2018-01-10T11:48:34.504Z,5.66
2018-01-10T11:51:09.295Z,5.71
2018-01-10T11:53:40.131Z,6.09
2018-01-10T11:56:10.973Z,6.36
2018-01-10T11:58:41.783Z,6.29
2018-01-10T12:01:12.577Z,6.33
2018-01-10T12:03:43.536Z,6.52
2018-01-10T12:06:14.333Z,6.65
2018-01-10T12:08:45.208Z,6.59
2018-01-10T12:11:16.044Z,6.49
2018-01-10T12:13:48.898Z,6.37
2018-01-10T12:16:19.721Z,6.49
2018-01-10T12:18:50.581Z,6.72
2018-01-10T12:21:21.553Z,7.13
2018-01-10T12:23:52.473Z,7.01
2018-01-10T12:26:23.391Z,6.93
2018-01-10T12:28:54.306Z,7.00
2018-01-10T12:31:25.315Z,7.19
2018-01-10T12:33:56.217Z,7.31
2018-01-10T12:36:26.993Z,6.98
2018-01-10T12:38:57.923Z,6.73
2018-01-10T12:41:28.745Z,6.82
2018-01-10T12:43:59.643Z,6.90
2018-01-10T12:46:31.859Z,6.66
2018-01-10T12:49:02.793Z,6.29
2018-01-10T12:51:33.704Z,6.12
2018-01-10T12:54:04.611Z,6.18
2018-01-10T12:56:35.459Z,6.52
2018-01-10T12:59:06.355Z,6.64
2018-01-10T13:01:37.229Z,6.58
2018-01-10T13:04:08.001Z,6.45
2018-01-10T13:06:38.812Z,6.26
2018-01-10T13:09:09.731Z,5.97
2018-01-10T13:11:40.522Z,5.82
2018-01-10T13:14:11.555Z,5.74
2018-01-10T13:16:42.378Z,5.54
2018-01-10T13:19:13.493Z,5.57
2018-01-10T13:21:44.280Z,5.45
2018-01-10T13:24:15.113Z,5.63
2018-01-10T13:26:46.037Z,5.54
2018-01-10T13:29:16.817Z,5.51
2018-01-10T13:31:47.716Z,5.50
2018-01-10T13:34:18.551Z,5.41
2018-01-10T13:36:49.499Z,5.36
2018-01-10T13:39:20.366Z,5.79
2018-01-10T13:41:51.350Z,5.71
2018-01-10T13:44:22.110Z,5.89
2018-01-10T13:46:52.960Z,5.85
2018-01-10T13:49:23.752Z,5.34
2018-01-10T13:51:54.636Z,5.48
2018-01-10T13:54:25.526Z,5.45
2018-01-10T13:56:56.403Z,5.44
2018-01-10T13:59:27.214Z,5.18
2018-01-10T14:01:58.236Z,5.18
2018-01-10T14:04:29.186Z,5.15
2018-01-10T14:07:00.213Z,5.12
2018-01-10T14:09:31.031Z,5.12
2018-01-10T14:12:01.805Z,5.07
2018-01-10T14:14:32.696Z,5.03
2018-01-10T14:17:03.557Z,5.14
2018-01-10T14:19:34.424Z,5.10
2018-01-10T14:22:05.614Z,5.07
2018-01-10T14:24:36.448Z,5.04
2018-01-10T14:27:07.313Z,5.00
2018-01-10T14:29:38.130Z,4.88
2018-01-10T14:32:08.989Z,4.77
2018-01-10T14:34:39.878Z,4.65
2018-01-10T14:37:10.670Z,4.78
2018-01-10T14:39:41.504Z,4.76
2018-01-10T14:42:12.336Z,4.81
2018-01-10T14:44:43.183Z,4.78
2018-01-10T14:47:13.948Z,4.80
2018-01-10T14:49:44.766Z,4.76
2018-01-10T14:52:15.594Z,4.79
2018-01-10T14:54:46.544Z,4.62
2018-01-10T14:57:17.389Z,4.66
2018-01-10T14:59:48.263Z,4.66
2018-01-10T15:02:19.125Z,4.59
2018-01-10T15:04:50.039Z,4.65
2018-01-10T15:07:20.826Z,4.64
2018-01-10T15:09:51.677Z,4.74
2018-01-10T15:12:22.426Z,4.77
2018-01-10T15:14:53.213Z,4.79
2018-01-10T15:17:24.073Z,4.80
2018-01-10T15:19:54.880Z,4.78
2018-01-10T15:22:25.648Z,4.79
2018-01-10T15:24:56.424Z,4.83
2018-01-10T15:27:27.227Z,4.81
2018-01-10T15:29:58.017Z,4.78
2018-01-10T15:32:28.836Z,4.84
2018-01-10T15:34:59.696Z,4.72
2018-01-10T15:37:30.557Z,4.83
2018-01-10T15:40:01.385Z,4.84
2018-01-10T15:42:32.335Z,4.79
2018-01-10T15:45:03.150Z,4.81
2018-01-10T15:47:34.021Z,4.90
2018-01-10T15:50:04.797Z,4.88
2018-01-10T15:52:35.673Z,4.86
2018-01-10T15:55:06.454Z,4.86
2018-01-10T15:57:37.204Z,4.88
2018-01-10T16:00:08.161Z,4.86
2018-01-10T16:02:39.014Z,4.83
2018-01-10T16:05:09.836Z,4.82
2018-01-10T16:07:40.688Z,4.89
2018-01-10T16:10:11.460Z,4.90
2018-01-10T16:12:42.210Z,4.87
2018-01-10T16:15:13.079Z,4.84
2018-01-10T16:17:43.913Z,4.89
2018-01-10T16:20:14.748Z,4.83
2018-01-10T16:22:45.505Z,4.87
2018-01-10T16:25:16.284Z,4.85
2018-01-10T16:27:47.075Z,4.80
2018-01-10T16:30:17.862Z,4.85
2018-01-10T16:32:48.637Z,4.81
2018-01-10T16:35:19.566Z,4.80
2018-01-10T16:37:50.332Z,4.80
2018-01-10T16:40:21.217Z,4.78
2018-01-10T16:42:52.108Z,4.81
2018-01-10T16:45:22.928Z,4.81
2018-01-10T16:47:53.706Z,4.94
2018-01-10T16:50:24.617Z,4.94
2018-01-10T16:52:55.392Z,4.84
2018-01-10T16:55:26.157Z,4.74
2018-01-10T16:57:56.936Z,4.60
2018-01-10T17:00:27.727Z,4.44
2018-01-10T17:02:58.495Z,4.22
2018-01-10T17:05:29.281Z,4.15
2018-01-10T17:08:00.116Z,4.06
2018-01-10T17:10:30.941Z,3.90
2018-01-10T17:13:01.773Z,3.84
2018-01-10T17:15:32.553Z,3.73
2018-01-10T17:18:03.345Z,3.74
2018-01-10T17:20:34.266Z,3.68
2018-01-10T17:23:05.185Z,3.63
2018-01-10T17:25:35.975Z,3.54
2018-01-10T17:28:06.812Z,3.46
2018-01-10T17:30:37.600Z,3.41
2018-01-10T17:33:08.410Z,3.38
2018-01-10T17:35:39.244Z,3.37
2018-01-10T17:38:10.048Z,3.26
2018-01-10T17:40:40.849Z,2.99
2018-01-10T17:43:11.606Z,2.93
2018-01-10T17:45:42.372Z,2.89
2018-01-10T17:48:13.205Z,2.75
2018-01-10T17:50:44.040Z,2.72
2018-01-10T17:53:14.868Z,2.77
2018-01-10T17:55:45.690Z,2.72
2018-01-10T17:58:16.552Z,2.59
2018-01-10T18:00:47.444Z,2.67
2018-01-10T18:03:18.221Z,2.66
2018-01-10T18:05:49.125Z,2.62
2018-01-10T18:08:19.909Z,2.57
2018-01-10T18:10:51.789Z,2.44
2018-01-10T18:13:22.574Z,2.39
2018-01-10T18:15:53.444Z,2.39
2018-01-10T18:18:25.468Z,2.33
2018-01-10T18:20:56.368Z,2.32
2018-01-10T18:23:27.168Z,2.22
2018-01-10T18:25:58.023Z,2.34
2018-01-10T18:28:28.917Z,2.30
2018-01-10T18:30:59.714Z,2.41
2018-01-10T18:33:30.524Z,2.43
2018-01-10T18:36:01.352Z,2.42
2018-01-10T18:38:32.153Z,2.32
2018-01-10T18:41:04.184Z,2.17
2018-01-10T18:43:34.939Z,2.34
2018-01-10T18:46:05.773Z,2.37
2018-01-10T18:48:36.649Z,2.33
2018-01-10T18:51:07.508Z,2.27
2018-01-10T18:53:38.281Z,2.35
2018-01-10T18:56:09.181Z,2.49
2018-01-10T18:58:39.968Z,2.53
2018-01-10T19:01:10.870Z,2.57
2018-01-10T19:03:41.689Z,2.58
2018-01-10T19:06:12.500Z,2.57
2018-01-10T19:08:43.388Z,2.56
2018-01-10T19:11:14.184Z,2.63
2018-01-10T19:13:44.959Z,2.57
2018-01-10T19:16:15.892Z,2.62
2018-01-10T19:18:47.494Z,2.52
2018-01-10T19:21:18.312Z,2.43
2018-01-10T19:23:49.134Z,2.44
2018-01-10T19:26:20.073Z,2.40
2018-01-10T19:28:50.861Z,2.34
2018-01-10T19:31:21.636Z,2.24
2018-01-10T19:33:52.413Z,2.16
2018-01-10T19:36:23.196Z,2.15
2018-01-10T19:38:53.976Z,2.08
2018-01-10T19:41:24.745Z,2.02
2018-01-10T19:43:55.502Z,2.00
2018-01-10T19:46:26.278Z,2.05
2018-01-10T19:48:57.064Z,2.06
2018-01-10T19:51:27.838Z,2.00
2018-01-10T19:53:58.597Z,1.83
2018-01-10T19:56:29.381Z,1.87
2018-01-10T19:59:00.132Z,1.91
2018-01-10T20:01:31.021Z,1.93
2018-01-10T20:04:01.788Z,1.92
2018-01-10T20:06:32.572Z,1.95
2018-01-10T20:09:03.359Z,1.95
2018-01-10T20:11:34.149Z,2.04
2018-01-10T20:14:04.909Z,2.06
2018-01-10T20:16:35.686Z,2.06
2018-01-10T20:19:06.461Z,1.98
2018-01-10T20:21:37.244Z,1.99
2018-01-10T20:24:07.983Z,2.05
2018-01-10T20:26:38.761Z,2.08
2018-01-10T20:29:09.550Z,2.13
2018-01-10T20:31:40.348Z,2.06
2018-01-10T20:34:11.102Z,2.00
2018-01-10T20:36:41.877Z,2.02
2018-01-10T20:39:12.660Z,2.10
2018-01-10T20:41:43.442Z,2.07
2018-01-10T20:44:14.195Z,2.07
2018-01-10T20:46:44.989Z,2.06
2018-01-10T20:49:15.757Z,2.08
2018-01-10T20:51:46.551Z,2.11
2018-01-10T20:54:17.315Z,2.02
2018-01-10T20:56:48.122Z,1.99
2018-01-10T20:59:18.880Z,1.95
2018-01-10T21:01:49.675Z,1.81
2018-01-10T21:04:20.455Z,1.89
2018-01-10T21:06:51.237Z,1.91
2018-01-10T21:09:22.043Z,1.94
2018-01-10T21:11:52.889Z,2.00
2018-01-10T21:14:23.657Z,1.94
2018-01-10T21:16:54.450Z,1.96
2018-01-10T21:19:25.220Z,2.05
2018-01-10T21:21:56.105Z,2.06
2018-01-10T21:24:26.854Z,1.99
2018-01-10T21:26:57.657Z,1.96
2018-01-10T21:29:28.425Z,2.00
2018-01-10T21:31:59.226Z,2.04
2018-01-10T21:34:29.977Z,2.13
2018-01-10T21:37:00.760Z,2.12
2018-01-10T21:39:31.573Z,2.03
2018-01-10T21:42:02.392Z,2.10
2018-01-10T21:44:33.170Z,2.18
2018-01-10T21:47:04.011Z,2.25
2018-01-10T21:49:34.776Z,2.33
2018-01-10T21:52:05.578Z,2.22
2018-01-10T21:54:36.385Z,2.27
2018-01-10T21:59:44.811Z,2.23
2018-01-10T22:02:15.580Z,2.18
2018-01-10T22:04:46.362Z,2.22
2018-01-10T22:07:17.134Z,2.24
2018-01-10T22:09:47.966Z,2.33
2018-01-10T22:12:18.751Z,2.36
2018-01-10T22:14:49.546Z,2.30
2018-01-10T22:17:20.357Z,2.25
2018-01-10T22:19:51.185Z,2.23
2018-01-10T22:22:21.985Z,2.27
2018-01-10T22:24:52.777Z,2.29
2018-01-10T22:27:23.563Z,2.29
2018-01-10T22:29:54.370Z,2.35
2018-01-10T22:32:25.174Z,2.43
2018-01-10T22:34:55.966Z,2.55
2018-01-10T22:37:26.759Z,2.42
2018-01-10T22:39:57.526Z,2.52
2018-01-10T22:42:28.301Z,2.50
2018-01-10T22:44:59.089Z,2.46
2018-01-10T22:47:29.862Z,2.43
2018-01-10T22:50:00.643Z,2.43
2018-01-10T22:52:31.416Z,2.51
2018-01-10T22:55:02.222Z,2.51
2018-01-10T22:57:33.013Z,2.52
2018-01-10T23:00:03.819Z,2.45
2018-01-10T23:02:34.593Z,2.63
2018-01-10T23:05:05.396Z,2.56
2018-01-10T23:07:36.190Z,2.50
2018-01-10T23:10:08.509Z,2.51
2018-01-10T23:12:39.269Z,2.41
2018-01-10T23:15:10.060Z,2.33
2018-01-10T23:17:40.816Z,2.34
2018-01-10T23:20:11.603Z,2.41
2018-01-10T23:22:42.370Z,2.27
2018-01-10T23:25:13.230Z,2.27
2018-01-10T23:27:44.029Z,2.28
2018-01-10T23:30:14.805Z,2.26
2018-01-10T23:32:46.601Z,2.20
2018-01-10T23:35:17.404Z,2.23
2018-01-10T23:37:48.172Z,2.27
2018-01-10T23:40:18.965Z,2.30
2018-01-10T23:42:49.725Z,2.29
2018-01-10T23:45:20.537Z,2.22
2018-01-10T23:47:51.324Z,2.22
2018-01-10T23:50:22.156Z,2.29
2018-01-10T23:52:52.925Z,2.20
2018-01-10T23:55:23.695Z,2.16
2018-01-10T23:57:54.483Z,2.04
